Topeka, IN (46571)

2:40 PM EST on December 04, 2016 (GMT -0500)
Anderson Farms | | Change Station

Elev 896 ft 41.42 °N, 85.64 °W | Updated 11 minutes ago

Light Snow
Light Snow
35.8 °F
Feels Like 36 °F
N
3.0
Wind Variable Wind from East
Gusts 8.0 mph

Today
High -- | Low -- °F
--% Chance of Precip.
Yesterday
High -- | Low -- °F
Precip. -- in
Pressure 29.98 in
Visibility 1.8 miles
Clouds Overcast 2000 ft
Windchill 36 °F
Dew Point 32 °F
Humidity 86%
Rainfall 0.00 in
Snow Depth Not available.
7:52 AM 5:12 PM
Waxing Crescent, 25% visible
SPECI KGSH 041930Z AUTO 09007KT 1 3/4SM -SN OVC020 02/M01 A2998 RMK AO2 P0001 T00171011
Pressure 29.98 in
Visibility 1.8 miles
Clouds Overcast 2000 ft
Windchill 36 °F
Dew Point 32 °F
Humidity 86%
Rainfall 0.00 in
Snow Depth Not available.
7:52 AM 5:12 PM
Waxing Crescent, 25% visible
SPECI KGSH 041930Z AUTO 09007KT 1 3/4SM -SN OVC020 02/M01 A2998 RMK AO2 P0001 T00171011

10-Day Weather Forecast

Almanac

Astronomy

Dec. 04, 2016 Rise Set
Actual Time
Civil Twilight
Nautical Twilight
Astronomical Twilight
Moon
Length of Visible Light
Length of Day
Tomorrow will be .
, % of the Moon is Illuminated

Today's Extremes

State Highs State Lows

Community

WunderPhotos

Upload Photos

1,955,650 photos uploaded!

WunderBlog® & News

Nearby

Air Quality

  Air Quality AQ Index Pollutant
Not available.

Snow Depth

Station Depth Elevation

Earthquake Activity

City Distance Mag. Time & Date
Minimum magnitude displayed is 2.5.

Coastal Water Temperatures

Place Temperature

Stations

Nearby Weather Stations

Station Location Temp. Windchill Dew Point Humidity Wind Precip. Elev Updated Type
                   

Watches & Warnings

There are currently no watches in effect.